sensor_id;sensor_type;location;lat;lon;timestamp;temperature;humidity
28253;DHT22;15515;45.588;5.276;2022-10-30T06:26:27;16.70;99.90
28253;DHT22;15515;45.588;5.276;2022-10-30T06:29:00;16.80;99.90
28253;DHT22;15515;45.588;5.276;2022-10-30T06:31:28;16.80;99.90
28253;DHT22;15515;45.588;5.276;2022-10-30T06:33:56;16.90;99.90
28253;DHT22;15515;45.588;5.276;2022-10-30T06:36:24;17.00;99.90
28253;DHT22;15515;45.588;5.276;2022-10-30T06:38:55;17.00;99.90
28253;DHT22;15515;45.588;5.276;2022-10-30T06:41:25;17.00;99.90
28253;DHT22;15515;45.588;5.276;2022-10-30T06:44:17;17.00;99.70
28253;DHT22;15515;45.588;5.276;2022-10-30T06:46:44;17.10;99.70
28253;DHT22;15515;45.588;5.276;2022-10-30T06:49:11;17.10;99.70
28253;DHT22;15515;45.588;5.276;2022-10-30T06:51:38;17.10;99.70
28253;DHT22;15515;45.588;5.276;2022-10-30T06:54:05;17.10;99.60
28253;DHT22;15515;45.588;5.276;2022-10-30T06:56:38;17.10;99.60
28253;DHT22;15515;45.588;5.276;2022-10-30T06:59:31;17.10;99.70
28253;DHT22;15515;45.588;5.276;2022-10-30T07:02:12;17.10;99.60
28253;DHT22;15515;45.588;5.276;2022-10-30T07:04:46;17.10;99.50
28253;DHT22;15515;45.588;5.276;2022-10-30T07:07:14;17.10;99.50
28253;DHT22;15515;45.588;5.276;2022-10-30T07:09:42;17.10;99.10
28253;DHT22;15515;45.588;5.276;2022-10-30T07:12:10;17.20;98.90
28253;DHT22;15515;45.588;5.276;2022-10-30T07:14:58;17.20;98.90
28253;DHT22;15515;45.588;5.276;2022-10-30T07:20:23;17.20;98.40
28253;DHT22;15515;45.588;5.276;2022-10-30T07:22:51;17.30;98.30
28253;DHT22;15515;45.588;5.276;2022-10-30T07:25:18;17.30;98.00
28253;DHT22;15515;45.588;5.276;2022-10-30T07:27:59;17.40;97.80
28253;DHT22;15515;45.588;5.276;2022-10-30T07:30:39;17.50;97.70
28253;DHT22;15515;45.588;5.276;2022-10-30T07:33:14;17.50;97.30
28253;DHT22;15515;45.588;5.276;2022-10-30T07:35:53;17.60;97.30
28253;DHT22;15515;45.588;5.276;2022-10-30T07:38:36;17.70;97.00
28253;DHT22;15515;45.588;5.276;2022-10-30T07:41:19;17.90;96.20
28253;DHT22;15515;45.588;5.276;2022-10-30T07:43:53;18.20;95.10
28253;DHT22;15515;45.588;5.276;2022-10-30T07:46:44;18.50;94.70
28253;DHT22;15515;45.588;5.276;2022-10-30T07:49:24;18.70;94.50
28253;DHT22;15515;45.588;5.276;2022-10-30T07:51:56;19.00;93.60
28253;DHT22;15515;45.588;5.276;2022-10-30T07:54:23;19.20;93.00
28253;DHT22;15515;45.588;5.276;2022-10-30T07:56:52;19.40;92.20
28253;DHT22;15515;45.588;5.276;2022-10-30T07:59:48;19.70;91.70
28253;DHT22;15515;45.588;5.276;2022-10-30T08:02:34;19.90;91.00
28253;DHT22;15515;45.588;5.276;2022-10-30T08:05:13;20.10;90.60
28253;DHT22;15515;45.588;5.276;2022-10-30T08:08:07;20.30;90.40
28253;DHT22;15515;45.588;5.276;2022-10-30T08:10:35;20.50;89.10
28253;DHT22;15515;45.588;5.276;2022-10-30T08:13:02;20.80;88.70
28253;DHT22;15515;45.588;5.276;2022-10-30T08:15:30;21.00;88.30
28253;DHT22;15515;45.588;5.276;2022-10-30T08:18:04;21.10;87.10
28253;DHT22;15515;45.588;5.276;2022-10-30T08:20:35;21.20;86.60
28253;DHT22;15515;45.588;5.276;2022-10-30T08:23:02;21.30;86.20
28253;DHT22;15515;45.588;5.276;2022-10-30T08:25:32;21.40;85.60
28253;DHT22;15515;45.588;5.276;2022-10-30T08:28:02;21.60;85.60
28253;DHT22;15515;45.588;5.276;2022-10-30T08:30:34;21.70;85.00
28253;DHT22;15515;45.588;5.276;2022-10-30T08:33:06;21.90;84.40
28253;DHT22;15515;45.588;5.276;2022-10-30T08:35:58;22.00;84.00
28253;DHT22;15515;45.588;5.276;2022-10-30T08:38:26;22.00;84.40
28253;DHT22;15515;45.588;5.276;2022-10-30T08:41:20;22.30;83.80
28253;DHT22;15515;45.588;5.276;2022-10-30T08:43:50;22.60;82.40
28253;DHT22;15515;45.588;5.276;2022-10-30T08:46:17;22.40;81.70
28253;DHT22;15515;45.588;5.276;2022-10-30T08:48:45;22.40;81.60
28253;DHT22;15515;45.588;5.276;2022-10-30T08:51:12;22.50;81.50
28253;DHT22;15515;45.588;5.276;2022-10-30T08:53:47;22.60;80.40
28253;DHT22;15515;45.588;5.276;2022-10-30T08:56:16;22.60;81.20
28253;DHT22;15515;45.588;5.276;2022-10-30T08:58:55;22.80;80.00
28253;DHT22;15515;45.588;5.276;2022-10-30T09:01:23;23.10;79.50
28253;DHT22;15515;45.588;5.276;2022-10-30T09:04:08;23.40;78.30
28253;DHT22;15515;45.588;5.276;2022-10-30T09:07:00;23.30;77.60
28253;DHT22;15515;45.588;5.276;2022-10-30T09:10:06;23.30;76.70
28253;DHT22;15515;45.588;5.276;2022-10-30T09:12:35;23.30;77.30
28253;DHT22;15515;45.588;5.276;2022-10-30T09:15:02;23.50;76.50
28253;DHT22;15515;45.588;5.276;2022-10-30T09:17:39;23.70;78.10
28253;DHT22;15515;45.588;5.276;2022-10-30T09:20:07;24.00;80.00
28253;DHT22;15515;45.588;5.276;2022-10-30T09:22:39;24.20;77.50
28253;DHT22;15515;45.588;5.276;2022-10-30T09:25:08;24.40;75.50
28253;DHT22;15515;45.588;5.276;2022-10-30T09:28:13;24.40;75.90
28253;DHT22;15515;45.588;5.276;2022-10-30T09:31:00;24.60;74.60
28253;DHT22;15515;45.588;5.276;2022-10-30T09:33:33;24.80;73.60
28253;DHT22;15515;45.588;5.276;2022-10-30T09:36:18;24.80;74.50
28253;DHT22;15515;45.588;5.276;2022-10-30T09:38:47;25.00;74.90
28253;DHT22;15515;45.588;5.276;2022-10-30T09:50:01;25.80;70.90
28253;DHT22;15515;45.588;5.276;2022-10-30T09:52:12;25.80;68.40
28253;DHT22;15515;45.588;5.276;2022-10-30T09:54:53;26.30;69.50
28253;DHT22;15515;45.588;5.276;2022-10-30T09:58:05;26.40;66.60
28253;DHT22;15515;45.588;5.276;2022-10-30T10:00:45;26.20;66.20
28253;DHT22;15515;45.588;5.276;2022-10-30T10:06:32;26.40;67.20
28253;DHT22;15515;45.588;5.276;2022-10-30T10:09:14;26.40;67.10
28253;DHT22;15515;45.588;5.276;2022-10-30T10:12:13;25.90;66.00
28253;DHT22;15515;45.588;5.276;2022-10-30T10:14:44;26.40;66.30
28253;DHT22;15515;45.588;5.276;2022-10-30T10:17:23;26.90;65.80
28253;DHT22;15515;45.588;5.276;2022-10-30T10:20:00;26.70;65.90
28253;DHT22;15515;45.588;5.276;2022-10-30T10:22:49;26.60;64.80
28253;DHT22;15515;45.588;5.276;2022-10-30T10:25:19;27.00;65.30
28253;DHT22;15515;45.588;5.276;2022-10-30T10:31:11;27.10;63.60
28253;DHT22;15515;45.588;5.276;2022-10-30T10:36:39;26.50;62.60
28253;DHT22;15515;45.588;5.276;2022-10-30T10:47:50;28.50;59.20
28253;DHT22;15515;45.588;5.276;2022-10-30T10:50:31;28.80;58.20
28253;DHT22;15515;45.588;5.276;2022-10-30T10:53:09;27.90;59.90
28253;DHT22;15515;45.588;5.276;2022-10-30T10:55:43;27.60;60.00
28253;DHT22;15515;45.588;5.276;2022-10-30T10:58:29;27.20;60.50
28253;DHT22;15515;45.588;5.276;2022-10-30T11:00:57;26.90;61.50
28253;DHT22;15515;45.588;5.276;2022-10-30T11:03:47;26.60;62.00
28253;DHT22;15515;45.588;5.276;2022-10-30T11:06:35;26.40;63.60
28253;DHT22;15515;45.588;5.276;2022-10-30T11:09:14;26.40;63.70
28253;DHT22;15515;45.588;5.276;2022-10-30T11:11:42;26.50;63.00
28253;DHT22;15515;45.588;5.276;2022-10-30T11:14:18;27.10;63.40
28253;DHT22;15515;45.588;5.276;2022-10-30T11:17:03;27.40;62.80
28253;DHT22;15515;45.588;5.276;2022-10-30T11:19:31;27.40;61.30
28253;DHT22;15515;45.588;5.276;2022-10-30T11:22:00;27.30;61.40
28253;DHT22;15515;45.588;5.276;2022-10-30T11:24:34;27.90;62.30
28253;DHT22;15515;45.588;5.276;2022-10-30T11:29:57;28.30;59.90
28253;DHT22;15515;45.588;5.276;2022-10-30T11:32:28;28.10;60.00
28253;DHT22;15515;45.588;5.276;2022-10-30T11:37:39;27.80;60.80
28253;DHT22;15515;45.588;5.276;2022-10-30T11:42:50;27.60;60.70
28253;DHT22;15515;45.588;5.276;2022-10-30T11:45:33;27.30;62.60
28253;DHT22;15515;45.588;5.276;2022-10-30T11:48:17;27.10;63.00
28253;DHT22;15515;45.588;5.276;2022-10-30T11:50:47;27.20;63.20
28253;DHT22;15515;45.588;5.276;2022-10-30T11:53:24;27.70;63.80
28253;DHT22;15515;45.588;5.276;2022-10-30T11:55:57;27.90;62.10
28253;DHT22;15515;45.588;5.276;2022-10-30T12:01:12;27.70;61.90
28253;DHT22;15515;45.588;5.276;2022-10-30T12:03:41;28.00;61.60
28253;DHT22;15515;45.588;5.276;2022-10-30T12:06:12;27.90;60.70
28253;DHT22;15515;45.588;5.276;2022-10-30T12:11:31;28.00;60.40
28253;DHT22;15515;45.588;5.276;2022-10-30T12:13:59;28.00;60.80
28253;DHT22;15515;45.588;5.276;2022-10-30T12:16:27;27.70;61.50
28253;DHT22;15515;45.588;5.276;2022-10-30T12:19:06;27.80;61.10
28253;DHT22;15515;45.588;5.276;2022-10-30T12:21:46;27.90;61.30
28253;DHT22;15515;45.588;5.276;2022-10-30T12:24:21;28.50;60.90
28253;DHT22;15515;45.588;5.276;2022-10-30T12:26:52;28.50;60.20
28253;DHT22;15515;45.588;5.276;2022-10-30T12:29:24;28.20;61.50
28253;DHT22;15515;45.588;5.276;2022-10-30T12:32:03;28.20;61.40
28253;DHT22;15515;45.588;5.276;2022-10-30T12:34:57;28.40;61.50
28253;DHT22;15515;45.588;5.276;2022-10-30T12:37:30;28.40;62.00
28253;DHT22;15515;45.588;5.276;2022-10-30T12:40:20;28.70;61.40
28253;DHT22;15515;45.588;5.276;2022-10-30T12:43:11;28.90;61.40
28253;DHT22;15515;45.588;5.276;2022-10-30T12:45:44;29.00;61.30
28253;DHT22;15515;45.588;5.276;2022-10-30T12:48:26;29.30;61.60
28253;DHT22;15515;45.588;5.276;2022-10-30T12:53:50;29.60;60.60
28253;DHT22;15515;45.588;5.276;2022-10-30T12:56:30;29.20;58.70
28253;DHT22;15515;45.588;5.276;2022-10-30T13:02:25;28.90;59.30
28253;DHT22;15515;45.588;5.276;2022-10-30T13:04:58;29.00;59.80
28253;DHT22;15515;45.588;5.276;2022-10-30T13:12:50;29.30;59.60
28253;DHT22;15515;45.588;5.276;2022-10-30T13:15:24;28.80;59.60
28253;DHT22;15515;45.588;5.276;2022-10-30T13:17:56;28.60;59.40
28253;DHT22;15515;45.588;5.276;2022-10-30T13:20:26;28.40;60.00
28253;DHT22;15515;45.588;5.276;2022-10-30T13:23:04;28.30;60.20
28253;DHT22;15515;45.588;5.276;2022-10-30T13:26:01;28.20;60.40
28253;DHT22;15515;45.588;5.276;2022-10-30T13:28:38;27.90;60.00
28253;DHT22;15515;45.588;5.276;2022-10-30T13:31:22;27.90;60.80
28253;DHT22;15515;45.588;5.276;2022-10-30T13:39:22;27.80;62.80
28253;DHT22;15515;45.588;5.276;2022-10-30T13:44:54;27.30;63.20
28253;DHT22;15515;45.588;5.276;2022-10-30T13:52:39;26.50;64.70
28253;DHT22;15515;45.588;5.276;2022-10-30T13:55:17;26.10;65.70
28253;DHT22;15515;45.588;5.276;2022-10-30T14:03:58;25.40;68.60
28253;DHT22;15515;45.588;5.276;2022-10-30T14:09:27;25.30;69.50
28253;DHT22;15515;45.588;5.276;2022-10-30T14:15:41;25.20;70.50
28253;DHT22;15515;45.588;5.276;2022-10-30T14:20:39;25.30;71.00
28253;DHT22;15515;45.588;5.276;2022-10-30T14:23:07;25.30;70.80
28253;DHT22;15515;45.588;5.276;2022-10-30T14:25:34;25.20;71.00
28253;DHT22;15515;45.588;5.276;2022-10-30T14:28:02;25.30;71.60
28253;DHT22;15515;45.588;5.276;2022-10-30T14:30:29;25.30;70.50
28253;DHT22;15515;45.588;5.276;2022-10-30T14:32:56;25.30;71.00
28253;DHT22;15515;45.588;5.276;2022-10-30T14:35:35;25.10;70.70
28253;DHT22;15515;45.588;5.276;2022-10-30T14:40:54;24.90;71.70
28253;DHT22;15515;45.588;5.276;2022-10-30T14:43:39;25.00;71.90
28253;DHT22;15515;45.588;5.276;2022-10-30T14:46:27;25.00;72.60
28253;DHT22;15515;45.588;5.276;2022-10-30T14:51:44;24.80;71.40
28253;DHT22;15515;45.588;5.276;2022-10-30T14:58:14;24.70;71.90
28253;DHT22;15515;45.588;5.276;2022-10-30T15:00:37;24.60;72.20
28253;DHT22;15515;45.588;5.276;2022-10-30T15:06:21;24.50;72.60
28253;DHT22;15515;45.588;5.276;2022-10-30T15:08:56;24.40;73.00
28253;DHT22;15515;45.588;5.276;2022-10-30T15:11:50;24.40;73.00
28253;DHT22;15515;45.588;5.276;2022-10-30T15:19:47;24.30;73.50
28253;DHT22;15515;45.588;5.276;2022-10-30T15:22:18;24.20;73.30
28253;DHT22;15515;45.588;5.276;2022-10-30T15:24:46;24.20;73.60
28253;DHT22;15515;45.588;5.276;2022-10-30T15:27:18;24.20;73.70
28253;DHT22;15515;45.588;5.276;2022-10-30T15:29:54;24.20;73.70
28253;DHT22;15515;45.588;5.276;2022-10-30T15:32:23;24.20;74.00
28253;DHT22;15515;45.588;5.276;2022-10-30T15:35:00;24.10;73.70
28253;DHT22;15515;45.588;5.276;2022-10-30T15:37:31;24.10;73.50
28253;DHT22;15515;45.588;5.276;2022-10-30T15:42:42;24.00;74.10
28253;DHT22;15515;45.588;5.276;2022-10-30T15:45:32;23.90;74.70
28253;DHT22;15515;45.588;5.276;2022-10-30T15:48:27;23.90;74.60
28253;DHT22;15515;45.588;5.276;2022-10-30T15:51:01;23.70;74.70
28253;DHT22;15515;45.588;5.276;2022-10-30T15:53:43;23.60;75.10
28253;DHT22;15515;45.588;5.276;2022-10-30T15:56:25;23.60;75.80
28253;DHT22;15515;45.588;5.276;2022-10-30T15:58:57;23.60;75.90
28253;DHT22;15515;45.588;5.276;2022-10-30T16:01:41;23.60;76.10
28253;DHT22;15515;45.588;5.276;2022-10-30T16:04:14;23.60;76.20
28253;DHT22;15515;45.588;5.276;2022-10-30T16:06:52;23.60;76.30
28253;DHT22;15515;45.588;5.276;2022-10-30T16:09:20;23.60;76.30
28253;DHT22;15515;45.588;5.276;2022-10-30T16:11:48;23.50;76.20
28253;DHT22;15515;45.588;5.276;2022-10-30T16:14:20;23.40;77.00
28253;DHT22;15515;45.588;5.276;2022-10-30T16:16:48;23.30;77.40
28253;DHT22;15515;45.588;5.276;2022-10-30T16:19:24;23.30;78.00
28253;DHT22;15515;45.588;5.276;2022-10-30T16:21:55;23.20;78.00
28253;DHT22;15515;45.588;5.276;2022-10-30T16:24:27;23.10;78.40
28253;DHT22;15515;45.588;5.276;2022-10-30T16:27:05;23.00;78.20
28253;DHT22;15515;45.588;5.276;2022-10-30T16:29:33;23.00;78.80
28253;DHT22;15515;45.588;5.276;2022-10-30T16:32:00;22.90;79.10
28253;DHT22;15515;45.588;5.276;2022-10-30T16:34:30;22.80;79.50
28253;DHT22;15515;45.588;5.276;2022-10-30T16:37:04;22.90;79.20
28253;DHT22;15515;45.588;5.276;2022-10-30T16:39:32;22.80;79.30
28253;DHT22;15515;45.588;5.276;2022-10-30T16:42:00;22.70;79.60
28253;DHT22;15515;45.588;5.276;2022-10-30T16:44:29;22.70;79.90
28253;DHT22;15515;45.588;5.276;2022-10-30T16:47:39;22.60;80.30
28253;DHT22;15515;45.588;5.276;2022-10-30T16:49:50;22.50;80.40
28253;DHT22;15515;45.588;5.276;2022-10-30T16:52:22;22.50;80.40
28253;DHT22;15515;45.588;5.276;2022-10-30T16:55:23;22.40;80.50
28253;DHT22;15515;45.588;5.276;2022-10-30T16:57:55;22.40;80.50
28253;DHT22;15515;45.588;5.276;2022-10-30T17:00:25;22.30;80.50
28253;DHT22;15515;45.588;5.276;2022-10-30T17:02:54;22.20;80.90
28253;DHT22;15515;45.588;5.276;2022-10-30T17:05:25;22.20;80.50
28253;DHT22;15515;45.588;5.276;2022-10-30T17:08:00;22.20;80.60
28253;DHT22;15515;45.588;5.276;2022-10-30T17:10:37;22.10;80.50
28253;DHT22;15515;45.588;5.276;2022-10-30T17:15:53;22.20;80.50
28253;DHT22;15515;45.588;5.276;2022-10-30T17:18:27;22.10;80.80
28253;DHT22;15515;45.588;5.276;2022-10-30T17:23:28;22.00;80.70
28253;DHT22;15515;45.588;5.276;2022-10-30T17:25:55;22.00;81.00
28253;DHT22;15515;45.588;5.276;2022-10-30T17:28:33;22.00;80.90
28253;DHT22;15515;45.588;5.276;2022-10-30T17:31:24;21.90;81.10
28253;DHT22;15515;45.588;5.276;2022-10-30T17:34:08;21.90;81.00
28253;DHT22;15515;45.588;5.276;2022-10-30T17:36:37;21.90;81.60
28253;DHT22;15515;45.588;5.276;2022-10-30T17:39:04;21.80;81.50
28253;DHT22;15515;45.588;5.276;2022-10-30T17:41:31;21.70;82.10
28253;DHT22;15515;45.588;5.276;2022-10-30T17:43:58;21.70;82.50
28253;DHT22;15515;45.588;5.276;2022-10-30T17:46:27;21.70;82.70
28253;DHT22;15515;45.588;5.276;2022-10-30T17:48:56;21.70;83.00
28253;DHT22;15515;45.588;5.276;2022-10-30T17:51:24;21.70;83.50
28253;DHT22;15515;45.588;5.276;2022-10-30T17:53:51;21.70;83.40
28253;DHT22;15515;45.588;5.276;2022-10-30T17:56:25;21.50;83.60
28253;DHT22;15515;45.588;5.276;2022-10-30T17:58:53;21.60;84.30
28253;DHT22;15515;45.588;5.276;2022-10-30T18:01:23;21.60;84.50
28253;DHT22;15515;45.588;5.276;2022-10-30T18:03:52;21.60;84.80
28253;DHT22;15515;45.588;5.276;2022-10-30T18:06:23;21.50;84.40
28253;DHT22;15515;45.588;5.276;2022-10-30T18:08:50;21.50;85.00
28253;DHT22;15515;45.588;5.276;2022-10-30T18:11:20;21.50;86.10
28253;DHT22;15515;45.588;5.276;2022-10-30T18:13:48;21.60;85.30
28253;DHT22;15515;45.588;5.276;2022-10-30T18:16:17;21.50;85.50
28253;DHT22;15515;45.588;5.276;2022-10-30T18:18:44;21.50;85.60
28253;DHT22;15515;45.588;5.276;2022-10-30T18:21:13;21.40;85.60
28253;DHT22;15515;45.588;5.276;2022-10-30T18:23:41;21.40;86.00
28253;DHT22;15515;45.588;5.276;2022-10-30T18:26:25;21.40;85.90
28253;DHT22;15515;45.588;5.276;2022-10-30T18:28:53;21.40;86.20
28253;DHT22;15515;45.588;5.276;2022-10-30T18:31:22;21.30;86.30
28253;DHT22;15515;45.588;5.276;2022-10-30T18:33:50;21.30;86.90
28253;DHT22;15515;45.588;5.276;2022-10-30T18:36:22;21.20;87.10
28253;DHT22;15515;45.588;5.276;2022-10-30T18:38:49;21.20;87.30
28253;DHT22;15515;45.588;5.276;2022-10-30T18:41:36;21.10;87.60
28253;DHT22;15515;45.588;5.276;2022-10-30T18:44:03;20.90;87.80
28253;DHT22;15515;45.588;5.276;2022-10-30T18:46:32;20.70;88.70
28253;DHT22;15515;45.588;5.276;2022-10-30T18:49:00;20.80;88.90
28253;DHT22;15515;45.588;5.276;2022-10-30T18:51:27;20.90;88.60
28253;DHT22;15515;45.588;5.276;2022-10-30T18:53:55;20.90;88.70
28253;DHT22;15515;45.588;5.276;2022-10-30T18:56:24;20.70;89.20
28253;DHT22;15515;45.588;5.276;2022-10-30T18:58:55;20.80;89.20
28253;DHT22;15515;45.588;5.276;2022-10-30T19:01:22;20.70;89.10
28253;DHT22;15515;45.588;5.276;2022-10-30T19:03:49;20.70;89.50
28253;DHT22;15515;45.588;5.276;2022-10-30T19:06:19;20.60;89.50
28253;DHT22;15515;45.588;5.276;2022-10-30T19:08:47;20.50;90.10
28253;DHT22;15515;45.588;5.276;2022-10-30T19:11:17;20.40;90.30
28253;DHT22;15515;45.588;5.276;2022-10-30T19:13:45;20.50;90.40
28253;DHT22;15515;45.588;5.276;2022-10-30T19:16:16;20.40;90.50
28253;DHT22;15515;45.588;5.276;2022-10-30T19:18:44;20.40;90.70
28253;DHT22;15515;45.588;5.276;2022-10-30T19:21:16;20.40;90.70
28253;DHT22;15515;45.588;5.276;2022-10-30T19:23:44;20.50;90.60
28253;DHT22;15515;45.588;5.276;2022-10-30T19:26:11;20.50;90.60
28253;DHT22;15515;45.588;5.276;2022-10-30T19:28:40;20.40;90.70
28253;DHT22;15515;45.588;5.276;2022-10-30T19:31:10;20.40;90.90
28253;DHT22;15515;45.588;5.276;2022-10-30T19:33:38;20.10;91.20
28253;DHT22;15515;45.588;5.276;2022-10-30T19:36:05;20.20;91.20
28253;DHT22;15515;45.588;5.276;2022-10-30T19:38:32;20.30;91.20
28253;DHT22;15515;45.588;5.276;2022-10-30T19:41:00;20.20;91.20
28253;DHT22;15515;45.588;5.276;2022-10-30T19:43:27;20.20;91.30
28253;DHT22;15515;45.588;5.276;2022-10-30T19:45:54;20.00;91.40
28253;DHT22;15515;45.588;5.276;2022-10-30T19:48:22;20.00;91.90
28253;DHT22;15515;45.588;5.276;2022-10-30T19:51:06;20.00;92.00
28253;DHT22;15515;45.588;5.276;2022-10-30T19:53:35;20.00;92.20
28253;DHT22;15515;45.588;5.276;2022-10-30T19:56:02;20.00;91.90
28253;DHT22;15515;45.588;5.276;2022-10-30T19:58:29;20.00;92.00
28253;DHT22;15515;45.588;5.276;2022-10-30T20:00:56;19.80;92.40
28253;DHT22;15515;45.588;5.276;2022-10-30T20:03:23;19.60;92.80
28253;DHT22;15515;45.588;5.276;2022-10-30T20:05:50;19.50;93.00
28253;DHT22;15515;45.588;5.276;2022-10-30T20:08:20;19.50;93.60
28253;DHT22;15515;45.588;5.276;2022-10-30T20:10:50;19.50;93.40
28253;DHT22;15515;45.588;5.276;2022-10-30T20:13:18;19.20;94.00
28253;DHT22;15515;45.588;5.276;2022-10-30T20:15:46;19.20;94.40
28253;DHT22;15515;45.588;5.276;2022-10-30T20:18:18;19.30;94.50
28253;DHT22;15515;45.588;5.276;2022-10-30T20:20:53;19.20;94.70
28253;DHT22;15515;45.588;5.276;2022-10-30T20:23:21;19.00;95.10
28253;DHT22;15515;45.588;5.276;2022-10-30T20:25:55;19.00;95.60
28253;DHT22;15515;45.588;5.276;2022-10-30T20:28:35;19.00;95.80
28253;DHT22;15515;45.588;5.276;2022-10-30T20:31:04;19.10;95.90
28253;DHT22;15515;45.588;5.276;2022-10-30T20:33:32;19.20;96.10
28253;DHT22;15515;45.588;5.276;2022-10-30T20:35:59;19.20;95.80
28253;DHT22;15515;45.588;5.276;2022-10-30T20:38:32;19.30;95.80
28253;DHT22;15515;45.588;5.276;2022-10-30T20:41:01;19.30;95.70
28253;DHT22;15515;45.588;5.276;2022-10-30T20:43:33;19.30;96.10
28253;DHT22;15515;45.588;5.276;2022-10-30T20:46:04;19.00;97.10
28253;DHT22;15515;45.588;5.276;2022-10-30T20:48:31;19.00;97.20
28253;DHT22;15515;45.588;5.276;2022-10-30T20:51:00;18.90;97.30
28253;DHT22;15515;45.588;5.276;2022-10-30T20:53:28;19.10;97.20
28253;DHT22;15515;45.588;5.276;2022-10-30T20:55:55;19.00;97.20
28253;DHT22;15515;45.588;5.276;2022-10-30T20:58:22;18.90;97.40
28253;DHT22;15515;45.588;5.276;2022-10-30T21:00:53;18.90;97.70
28253;DHT22;15515;45.588;5.276;2022-10-30T21:03:21;18.90;97.90
28253;DHT22;15515;45.588;5.276;2022-10-30T21:05:57;18.90;98.00
28253;DHT22;15515;45.588;5.276;2022-10-30T21:08:26;18.60;98.50
28253;DHT22;15515;45.588;5.276;2022-10-30T21:11:01;18.50;98.90
28253;DHT22;15515;45.588;5.276;2022-10-30T21:13:28;18.60;98.90
28253;DHT22;15515;45.588;5.276;2022-10-30T21:16:00;18.50;99.10
28253;DHT22;15515;45.588;5.276;2022-10-30T21:18:27;18.40;99.60
28253;DHT22;15515;45.588;5.276;2022-10-30T21:20:59;18.40;99.70
28253;DHT22;15515;45.588;5.276;2022-10-30T21:23:26;18.40;99.90
28253;DHT22;15515;45.588;5.276;2022-10-30T21:26:02;18.40;99.90
28253;DHT22;15515;45.588;5.276;2022-10-30T21:28:30;18.30;99.90
28253;DHT22;15515;45.588;5.276;2022-10-30T21:31:04;18.30;99.90
28253;DHT22;15515;45.588;5.276;2022-10-30T21:33:33;18.40;99.90
28253;DHT22;15515;45.588;5.276;2022-10-30T21:36:05;18.50;99.80
28253;DHT22;15515;45.588;5.276;2022-10-30T21:38:36;18.70;99.40
28253;DHT22;15515;45.588;5.276;2022-10-30T21:41:03;18.70;99.10
28253;DHT22;15515;45.588;5.276;2022-10-30T21:43:30;18.70;99.20
28253;DHT22;15515;45.588;5.276;2022-10-30T21:45:57;18.80;98.90
28253;DHT22;15515;45.588;5.276;2022-10-30T21:48:24;18.80;98.80
28253;DHT22;15515;45.588;5.276;2022-10-30T21:50:51;18.80;98.60
28253;DHT22;15515;45.588;5.276;2022-10-30T21:53:18;18.60;99.30
28253;DHT22;15515;45.588;5.276;2022-10-30T21:55:45;18.80;99.10
28253;DHT22;15515;45.588;5.276;2022-10-30T21:58:12;18.80;99.00
28253;DHT22;15515;45.588;5.276;2022-10-30T22:00:39;18.80;98.70
28253;DHT22;15515;45.588;5.276;2022-10-30T22:03:09;18.90;98.60
28253;DHT22;15515;45.588;5.276;2022-10-30T22:05:36;18.90;98.70
28253;DHT22;15515;45.588;5.276;2022-10-30T22:08:03;18.80;98.90
28253;DHT22;15515;45.588;5.276;2022-10-30T22:10:32;18.70;99.30
28253;DHT22;15515;45.588;5.276;2022-10-30T22:12:59;18.70;99.30
28253;DHT22;15515;45.588;5.276;2022-10-30T22:15:26;18.70;99.50
28253;DHT22;15515;45.588;5.276;2022-10-30T22:17:53;18.60;99.90
28253;DHT22;15515;45.588;5.276;2022-10-30T22:20:20;18.50;99.90
28253;DHT22;15515;45.588;5.276;2022-10-30T22:22:47;18.60;99.90
28253;DHT22;15515;45.588;5.276;2022-10-30T22:25:14;18.60;99.90
28253;DHT22;15515;45.588;5.276;2022-10-30T22:27:40;18.40;99.90
28253;DHT22;15515;45.588;5.276;2022-10-30T22:30:08;18.40;99.90
28253;DHT22;15515;45.588;5.276;2022-10-30T22:32:35;18.50;99.90
28253;DHT22;15515;45.588;5.276;2022-10-30T22:35:02;18.50;99.90
28253;DHT22;15515;45.588;5.276;2022-10-30T22:37:29;18.50;99.90
28253;DHT22;15515;45.588;5.276;2022-10-30T22:39:56;18.40;99.90
28253;DHT22;15515;45.588;5.276;2022-10-30T22:42:23;18.50;99.90
28253;DHT22;15515;45.588;5.276;2022-10-30T22:44:50;18.50;99.90
28253;DHT22;15515;45.588;5.276;2022-10-30T22:47:17;18.50;99.90
28253;DHT22;15515;45.588;5.276;2022-10-30T22:49:44;18.50;99.90
28253;DHT22;15515;45.588;5.276;2022-10-30T22:52:11;18.50;99.90
28253;DHT22;15515;45.588;5.276;2022-10-30T22:54:38;18.60;99.90
28253;DHT22;15515;45.588;5.276;2022-10-30T22:57:05;18.60;99.90
28253;DHT22;15515;45.588;5.276;2022-10-30T22:59:32;18.60;99.90
28253;DHT22;15515;45.588;5.276;2022-10-30T23:01:59;18.60;99.90
28253;DHT22;15515;45.588;5.276;2022-10-30T23:04:26;18.50;99.90
28253;DHT22;15515;45.588;5.276;2022-10-30T23:06:53;18.60;99.90
28253;DHT22;15515;45.588;5.276;2022-10-30T23:09:20;18.50;99.90
28253;DHT22;15515;45.588;5.276;2022-10-30T23:11:48;18.50;99.90
28253;DHT22;15515;45.588;5.276;2022-10-30T23:14:15;18.40;99.90
28253;DHT22;15515;45.588;5.276;2022-10-30T23:16:42;18.30;99.90
28253;DHT22;15515;45.588;5.276;2022-10-30T23:19:09;18.40;99.90
28253;DHT22;15515;45.588;5.276;2022-10-30T23:21:37;18.40;99.90
28253;DHT22;15515;45.588;5.276;2022-10-30T23:24:04;18.50;99.90
28253;DHT22;15515;45.588;5.276;2022-10-30T23:26:33;18.40;99.90
28253;DHT22;15515;45.588;5.276;2022-10-30T23:29:01;18.20;99.90
28253;DHT22;15515;45.588;5.276;2022-10-30T23:31:31;18.20;99.90
28253;DHT22;15515;45.588;5.276;2022-10-30T23:34:01;18.10;99.90
28253;DHT22;15515;45.588;5.276;2022-10-30T23:36:28;18.10;99.90
28253;DHT22;15515;45.588;5.276;2022-10-30T23:38:57;18.10;99.90
28253;DHT22;15515;45.588;5.276;2022-10-30T23:41:27;18.10;99.90
28253;DHT22;15515;45.588;5.276;2022-10-30T23:43:55;18.00;99.90
28253;DHT22;15515;45.588;5.276;2022-10-30T23:46:22;18.10;99.90
28253;DHT22;15515;45.588;5.276;2022-10-30T23:48:49;17.80;99.90
28253;DHT22;15515;45.588;5.276;2022-10-30T23:51:17;17.90;99.90
28253;DHT22;15515;45.588;5.276;2022-10-30T23:53:44;17.90;99.90
28253;DHT22;15515;45.588;5.276;2022-10-30T23:56:11;17.90;99.90
28253;DHT22;15515;45.588;5.276;2022-10-30T23:58:42;17.80;99.90
